createdAt,value
2022-10-22T00:01:41.125Z,2.28
2022-10-22T00:07:49.793Z,1.73
2022-10-22T00:10:52.894Z,2.40
2022-10-22T00:13:54.801Z,2.38
2022-10-22T00:16:56.706Z,2.92
2022-10-22T00:19:58.400Z,2.83
2022-10-22T00:23:00.161Z,2.58
2022-10-22T00:26:02.356Z,3.30
2022-10-22T00:29:04.500Z,3.03
2022-10-22T00:32:06.514Z,2.85
2022-10-22T00:35:08.427Z,2.78
2022-10-22T00:38:10.319Z,2.78
2022-10-22T00:41:12.058Z,2.80
2022-10-22T00:44:51.683Z,3.00
2022-10-22T00:48:11.876Z,2.78
2022-10-22T00:51:14.273Z,2.90
2022-10-22T00:54:16.030Z,3.20
2022-10-22T00:57:19.907Z,3.70
2022-10-22T01:00:21.968Z,2.63
2022-10-22T01:03:24.298Z,3.05
2022-10-22T01:06:34.213Z,2.97
2022-10-22T01:09:50.990Z,2.65
2022-10-22T01:13:14.578Z,2.38
2022-10-22T01:16:40.477Z,2.60
2022-10-22T01:19:51.409Z,2.80
2022-10-22T01:22:59.630Z,1.45
2022-10-22T01:26:13.303Z,1.38
2022-10-22T01:29:36.910Z,2.80
2022-10-22T01:32:48.314Z,2.70
2022-10-22T01:35:50.818Z,3.25
2022-10-22T01:38:54.160Z,2.22
2022-10-22T01:41:57.052Z,1.83
2022-10-22T01:44:58.830Z,3.10
2022-10-22T01:48:18.785Z,2.42
2022-10-22T01:51:53.343Z,2.55
2022-10-22T01:55:28.903Z,2.90
2022-10-22T01:58:43.491Z,1.95
2022-10-22T02:01:58.968Z,2.67
2022-10-22T02:05:32.931Z,2.42
2022-10-22T02:08:37.077Z,1.75
2022-10-22T02:11:39.811Z,1.77
2022-10-22T02:14:43.898Z,2.70
2022-10-22T02:17:47.198Z,2.30
2022-10-22T02:20:49.623Z,2.28
2022-10-22T02:23:51.701Z,2.45
2022-10-22T02:26:59.418Z,2.65
2022-10-22T02:30:14.186Z,3.33
2022-10-22T02:33:20.851Z,2.90
2022-10-22T02:39:25.822Z,2.75
2022-10-22T02:42:28.798Z,2.63
2022-10-22T02:45:31.063Z,2.67
2022-10-22T02:48:32.856Z,2.75
2022-10-22T02:51:34.747Z,3.10
2022-10-22T02:54:36.514Z,2.45
2022-10-22T02:57:38.489Z,2.58
2022-10-22T03:00:40.422Z,2.33
2022-10-22T03:03:42.181Z,2.83
2022-10-22T03:06:44.738Z,3.03
2022-10-22T03:09:46.744Z,2.75
2022-10-22T03:12:48.429Z,2.33
2022-10-22T03:15:50.973Z,2.47
2022-10-22T03:18:52.749Z,3.28
2022-10-22T03:21:59.616Z,3.38
2022-10-22T03:25:08.005Z,2.67
2022-10-22T03:28:13.848Z,2.53
2022-10-22T03:31:15.727Z,2.23
2022-10-22T03:34:17.505Z,2.38
2022-10-22T03:37:20.115Z,2.85
2022-10-22T03:40:22.140Z,2.33
2022-10-22T03:43:23.904Z,2.67
2022-10-22T03:46:25.607Z,2.97
2022-10-22T03:49:27.332Z,2.83
2022-10-22T03:52:29.123Z,2.97
2022-10-22T03:55:30.847Z,2.63
2022-10-22T03:58:32.592Z,2.40
2022-10-22T04:01:34.417Z,2.58
2022-10-22T04:04:37.355Z,1.90
2022-10-22T04:07:39.490Z,3.03
2022-10-22T04:10:41.329Z,3.10
2022-10-22T04:13:43.968Z,2.58
2022-10-22T04:16:46.309Z,2.45
2022-10-22T04:19:48.494Z,1.98
2022-10-22T04:22:50.368Z,2.95
2022-10-22T04:25:58.616Z,4.60
2022-10-22T04:29:00.592Z,3.67
2022-10-22T04:32:02.298Z,2.65
2022-10-22T04:35:04.373Z,2.50
2022-10-22T04:38:06.148Z,2.95
2022-10-22T04:41:18.896Z,2.72
2022-10-22T04:44:20.670Z,3.08
2022-10-22T04:47:22.623Z,2.40
2022-10-22T04:50:24.506Z,1.83
2022-10-22T04:53:27.785Z,2.78
2022-10-22T04:56:31.506Z,2.58
2022-10-22T04:59:33.255Z,3.25
2022-10-22T05:02:35.035Z,3.22
2022-10-22T05:05:36.804Z,3.58
2022-10-22T05:08:39.160Z,3.45
2022-10-22T05:11:43.337Z,2.83
2022-10-22T05:14:45.144Z,2.97
2022-10-22T05:17:46.889Z,3.10
2022-10-22T05:20:48.662Z,3.15
2022-10-22T05:23:51.243Z,2.63
2022-10-22T05:26:54.423Z,2.25
2022-10-22T05:29:56.634Z,1.70
2022-10-22T05:32:58.335Z,1.90
2022-10-22T05:36:02.338Z,2.83
2022-10-22T05:39:04.348Z,4.60
2022-10-22T05:42:06.361Z,3.58
2022-10-22T05:45:08.953Z,4.05
2022-10-22T05:48:10.782Z,3.53
2022-10-22T05:51:13.408Z,2.75
2022-10-22T05:54:20.138Z,4.22
2022-10-22T06:00:23.467Z,2.53
2022-10-22T06:03:25.965Z,2.65
2022-10-22T06:06:43.390Z,2.95
2022-10-22T06:09:45.117Z,2.72
2022-10-22T06:12:47.930Z,2.40
2022-10-22T06:15:52.674Z,3.08
2022-10-22T06:18:54.536Z,1.92
2022-10-22T06:21:56.336Z,0.20
2022-10-22T06:24:58.409Z,4.45
2022-10-22T06:28:00.225Z,3.53
2022-10-22T06:31:03.459Z,1.52
2022-10-22T06:34:07.174Z,5.85
2022-10-22T06:37:09.955Z,3.25
2022-10-22T06:40:12.387Z,5.57
2022-10-22T06:43:15.008Z,4.53
2022-10-22T06:46:20.231Z,3.58
2022-10-22T06:49:22.148Z,3.63
2022-10-22T06:52:23.973Z,4.70
2022-10-22T06:55:25.659Z,3.58
2022-10-22T06:58:27.429Z,4.18
2022-10-22T07:01:32.524Z,4.20
2022-10-22T07:04:34.237Z,4.20
2022-10-22T07:07:35.958Z,3.10
2022-10-22T07:10:37.671Z,2.30
2022-10-22T07:13:39.992Z,3.33
2022-10-22T07:16:43.121Z,1.90
2022-10-22T07:19:48.425Z,2.67
2022-10-22T07:22:52.937Z,3.95
2022-10-22T07:28:57.204Z,3.38
2022-10-22T07:31:59.165Z,3.88
2022-10-22T07:35:01.186Z,3.25
2022-10-22T07:38:03.026Z,4.60
2022-10-22T07:41:05.069Z,4.40
2022-10-22T07:44:06.816Z,5.30
2022-10-22T07:47:08.475Z,1.90
2022-10-22T07:50:10.415Z,4.78
2022-10-22T07:53:14.438Z,6.40
2022-10-22T07:56:16.329Z,5.78
2022-10-22T07:59:18.195Z,3.55
2022-10-22T08:02:19.949Z,3.47
2022-10-22T08:05:21.706Z,4.93
2022-10-22T08:08:27.120Z,3.78
2022-10-22T08:11:33.528Z,4.60
2022-10-22T08:14:35.705Z,4.18
2022-10-22T08:17:37.451Z,4.05
2022-10-22T08:20:39.845Z,4.10
2022-10-22T08:23:41.681Z,4.68
2022-10-22T08:26:43.480Z,4.43
2022-10-22T08:29:45.352Z,4.93
2022-10-22T08:32:49.335Z,4.47
2022-10-22T08:35:53.683Z,4.45
2022-10-22T08:38:55.420Z,5.20
2022-10-22T08:42:20.518Z,4.53
2022-10-22T08:45:33.847Z,3.22
2022-10-22T08:48:44.338Z,4.28
2022-10-22T08:51:46.579Z,3.65
2022-10-22T08:54:54.841Z,4.93
2022-10-22T08:58:06.265Z,4.82
2022-10-22T09:01:15.053Z,4.63
2022-10-22T09:04:45.191Z,3.55
2022-10-22T09:07:50.215Z,4.35
2022-10-22T09:11:27.369Z,5.20
2022-10-22T09:14:30.045Z,4.60
2022-10-22T09:17:45.507Z,4.47
2022-10-22T09:20:56.700Z,5.20
2022-10-22T09:24:04.991Z,3.97
2022-10-22T09:27:17.963Z,5.35
2022-10-22T09:30:23.202Z,4.57
2022-10-22T09:33:27.770Z,4.47
2022-10-22T09:36:30.081Z,4.18
2022-10-22T09:39:45.175Z,4.00
2022-10-22T09:42:47.733Z,3.75
2022-10-22T09:46:01.378Z,4.35
2022-10-22T09:49:11.100Z,3.90
2022-10-22T09:52:28.532Z,4.57
2022-10-22T09:55:30.320Z,4.70
2022-10-22T09:58:42.854Z,4.43
2022-10-22T10:01:44.996Z,4.55
2022-10-22T10:04:56.029Z,5.07
2022-10-22T10:07:59.397Z,4.50
2022-10-22T10:11:29.374Z,4.35
2022-10-22T10:14:51.886Z,5.15
2022-10-22T10:18:08.811Z,4.10
2022-10-22T10:21:34.063Z,5.28
2022-10-22T10:24:44.488Z,5.40
2022-10-22T10:28:27.617Z,4.72
2022-10-22T10:31:29.294Z,4.75
2022-10-22T10:34:39.576Z,4.75
2022-10-22T10:38:00.180Z,5.68
2022-10-22T10:41:13.109Z,5.18
2022-10-22T10:44:33.224Z,5.45
2022-10-22T10:48:16.679Z,5.40
2022-10-22T10:51:50.681Z,5.43
2022-10-22T10:55:14.051Z,4.93
2022-10-22T10:58:25.735Z,1.67
2022-10-22T11:02:10.139Z,3.95
2022-10-22T11:05:21.044Z,5.20
2022-10-22T11:08:36.582Z,4.97
2022-10-22T11:11:47.394Z,4.93
2022-10-22T11:15:27.523Z,4.97
2022-10-22T11:18:35.752Z,4.70
2022-10-22T11:21:47.423Z,5.82
2022-10-22T11:25:01.725Z,5.57
2022-10-22T11:28:10.401Z,5.68
2022-10-22T11:31:17.560Z,4.35
2022-10-22T11:34:40.145Z,5.35
2022-10-22T11:37:45.200Z,6.55
2022-10-22T11:41:00.444Z,5.50
2022-10-22T11:44:23.721Z,5.78
2022-10-22T11:47:32.263Z,7.25
2022-10-22T11:51:00.117Z,6.30
2022-10-22T11:54:23.412Z,5.15
2022-10-22T11:57:37.143Z,6.28
2022-10-22T12:00:48.264Z,5.93
2022-10-22T12:03:51.739Z,5.78
2022-10-22T12:07:02.967Z,5.65
2022-10-22T12:10:20.201Z,5.93
2022-10-22T12:13:25.036Z,5.50
2022-10-22T12:16:54.778Z,6.40
2022-10-22T12:20:11.634Z,5.88
2022-10-22T12:23:14.299Z,5.90
2022-10-22T12:29:33.101Z,6.55
2022-10-22T12:32:41.434Z,6.00
2022-10-22T12:35:45.548Z,6.03
2022-10-22T12:38:47.436Z,6.78
2022-10-22T12:41:51.126Z,6.65
2022-10-22T12:44:56.694Z,5.90
2022-10-22T12:48:02.127Z,6.17
2022-10-22T12:51:08.141Z,6.30
2022-10-22T12:54:26.927Z,7.95
2022-10-22T12:57:29.210Z,8.15
2022-10-22T13:00:34.872Z,6.72
2022-10-22T13:03:42.111Z,6.32
2022-10-22T13:06:45.679Z,6.65
2022-10-22T13:09:59.024Z,5.93
2022-10-22T13:13:06.853Z,6.03
2022-10-22T13:16:20.421Z,5.07
2022-10-22T13:20:02.228Z,5.65
2022-10-22T13:23:06.201Z,5.72
2022-10-22T13:26:16.488Z,5.35
2022-10-22T13:29:20.399Z,5.32
2022-10-22T13:32:32.587Z,5.20
2022-10-22T13:35:37.581Z,5.82
2022-10-22T13:38:41.451Z,5.78
2022-10-22T13:41:43.646Z,5.70
2022-10-22T13:44:45.521Z,5.50
2022-10-22T13:47:53.334Z,5.88
2022-10-22T13:50:55.536Z,5.15
2022-10-22T13:54:00.227Z,6.40
2022-10-22T13:57:01.911Z,6.43
2022-10-22T14:00:04.160Z,5.75
2022-10-22T14:03:16.653Z,6.18
2022-10-22T14:06:21.043Z,6.55
2022-10-22T14:09:22.856Z,8.15
2022-10-22T14:12:25.165Z,7.70
2022-10-22T14:15:28.679Z,7.85
2022-10-22T14:18:32.673Z,7.85
2022-10-22T14:21:37.335Z,5.82
2022-10-22T14:24:39.161Z,7.50
2022-10-22T14:27:41.114Z,7.32
2022-10-22T14:30:43.671Z,7.60
2022-10-22T14:33:45.866Z,7.95
2022-10-22T14:36:47.591Z,7.90
2022-10-22T14:39:52.786Z,7.20
2022-10-22T14:42:54.783Z,6.63
2022-10-22T14:45:57.368Z,6.55
2022-10-22T14:48:59.128Z,7.05
2022-10-22T14:52:01.011Z,5.97
2022-10-22T14:55:03.001Z,7.32
2022-10-22T14:58:04.973Z,8.32
2022-10-22T15:01:07.873Z,8.50
2022-10-22T15:04:09.680Z,7.57
2022-10-22T15:07:12.745Z,8.82
2022-10-22T15:10:17.372Z,8.07
2022-10-22T15:16:26.066Z,7.78
2022-10-22T15:19:29.363Z,6.03
2022-10-22T15:22:34.985Z,7.40
2022-10-22T15:25:36.757Z,6.07
2022-10-22T15:28:40.319Z,7.47
2022-10-22T15:31:53.575Z,6.28
2022-10-22T15:34:56.148Z,7.45
2022-10-22T15:37:57.921Z,7.97
2022-10-22T15:41:06.843Z,7.40
2022-10-22T15:44:15.241Z,7.55
2022-10-22T15:47:17.747Z,6.78
2022-10-22T15:50:19.543Z,7.35
2022-10-22T15:53:21.190Z,8.18
2022-10-22T15:56:23.860Z,9.23
2022-10-22T15:59:26.062Z,12.15
2022-10-22T16:02:27.772Z,14.55
2022-10-22T16:05:29.516Z,14.80
2022-10-22T16:08:31.500Z,16.55
2022-10-22T16:11:33.711Z,15.10
2022-10-22T16:14:35.463Z,13.35
2022-10-22T16:17:37.296Z,10.95
2022-10-22T16:20:40.077Z,9.25
2022-10-22T16:23:42.627Z,9.63
2022-10-22T16:26:44.481Z,8.30
2022-10-22T16:29:46.188Z,7.97
2022-10-22T16:32:47.957Z,7.72
2022-10-22T16:35:50.024Z,6.65
2022-10-22T16:38:51.868Z,8.15
2022-10-22T16:41:53.623Z,7.63
2022-10-22T16:44:55.395Z,7.50
2022-10-22T16:47:57.101Z,7.97
2022-10-22T16:50:59.878Z,8.15
2022-10-22T16:54:03.665Z,8.38
2022-10-22T16:57:07.410Z,7.37
2022-10-22T17:00:09.897Z,7.80
2022-10-22T17:03:12.143Z,8.95
2022-10-22T17:06:14.746Z,10.68
2022-10-22T17:09:16.698Z,13.20
2022-10-22T17:12:18.540Z,11.80
2022-10-22T17:15:20.262Z,12.02
2022-10-22T17:18:21.979Z,11.32
2022-10-22T17:21:24.787Z,10.38
2022-10-22T17:24:26.554Z,9.38
2022-10-22T17:27:28.270Z,10.10
2022-10-22T17:30:30.500Z,11.45
2022-10-22T17:33:34.071Z,8.15
2022-10-22T17:36:36.935Z,9.18
2022-10-22T17:39:39.100Z,9.85
2022-10-22T17:42:41.195Z,9.77
2022-10-22T17:45:43.137Z,10.25
2022-10-22T17:48:48.387Z,11.60
2022-10-22T17:51:50.368Z,11.38
2022-10-22T17:54:53.223Z,10.32
2022-10-22T17:57:55.064Z,9.95
2022-10-22T18:00:57.905Z,8.63
2022-10-22T18:04:02.722Z,6.95
2022-10-22T18:07:04.383Z,8.50
2022-10-22T18:10:07.008Z,9.18
2022-10-22T18:13:08.806Z,10.85
2022-10-22T18:16:10.618Z,11.35
2022-10-22T18:19:15.769Z,9.20
2022-10-22T18:22:17.609Z,11.70
2022-10-22T18:25:19.320Z,8.35
2022-10-22T18:28:21.188Z,8.65
2022-10-22T18:31:24.468Z,9.40
2022-10-22T18:34:27.590Z,10.90
2022-10-22T18:37:30.737Z,10.88
2022-10-22T18:40:33.088Z,11.98
2022-10-22T18:43:35.851Z,12.02
2022-10-22T18:46:39.623Z,13.98
2022-10-22T18:49:41.356Z,12.68
2022-10-22T18:52:43.417Z,9.85
2022-10-22T18:55:45.292Z,9.95
2022-10-22T18:58:48.814Z,9.27
2022-10-22T19:01:55.409Z,9.10
2022-10-22T19:07:58.844Z,6.85
2022-10-22T19:11:00.988Z,6.35
2022-10-22T19:14:03.312Z,6.75
2022-10-22T19:17:05.037Z,5.95
2022-10-22T19:20:07.186Z,6.75
2022-10-22T19:23:08.865Z,4.68
2022-10-22T19:26:14.696Z,4.88
2022-10-22T19:29:18.325Z,5.85
2022-10-22T19:32:20.254Z,5.95
2022-10-22T19:35:22.402Z,5.38
2022-10-22T19:38:29.640Z,5.95
2022-10-22T19:41:32.819Z,4.95
2022-10-22T19:44:34.555Z,6.50
2022-10-22T19:47:36.512Z,5.35
2022-10-22T19:50:38.244Z,5.30
2022-10-22T19:53:41.102Z,6.63
2022-10-22T19:56:42.864Z,4.82
2022-10-22T19:59:45.782Z,5.35
2022-10-22T20:02:47.515Z,5.10
2022-10-22T20:05:51.152Z,5.88
2022-10-22T20:08:55.969Z,3.55
2022-10-22T20:11:58.220Z,8.45
2022-10-22T20:15:01.815Z,7.18
2022-10-22T20:18:03.622Z,9.32
2022-10-22T20:21:12.009Z,8.43
2022-10-22T20:24:14.027Z,8.10
2022-10-22T20:27:15.764Z,8.05
2022-10-22T20:30:19.570Z,7.72
2022-10-22T20:33:23.204Z,7.97
2022-10-22T20:36:26.026Z,7.10
2022-10-22T20:39:27.703Z,2.53
2022-10-22T20:42:29.522Z,6.15
2022-10-22T20:45:31.539Z,5.28
2022-10-22T20:48:33.587Z,5.35
2022-10-22T20:51:37.150Z,7.43
2022-10-22T20:54:42.435Z,8.07
2022-10-22T20:57:44.536Z,7.45
2022-10-22T21:00:47.490Z,5.68
2022-10-22T21:03:51.823Z,4.57
2022-10-22T21:06:54.294Z,4.38
2022-10-22T21:09:55.984Z,5.00
2022-10-22T21:12:58.043Z,4.30
2022-10-22T21:15:59.991Z,5.22
2022-10-22T21:19:01.924Z,4.30
2022-10-22T21:22:03.732Z,4.80
2022-10-22T21:25:06.032Z,6.38
2022-10-22T21:28:07.969Z,4.63
2022-10-22T21:31:11.195Z,5.53
2022-10-22T21:34:13.987Z,3.83
2022-10-22T21:37:15.667Z,4.82
2022-10-22T21:40:17.497Z,4.22
2022-10-22T21:43:19.796Z,4.65
2022-10-22T21:46:26.952Z,4.38
2022-10-22T21:49:28.742Z,4.55
2022-10-22T21:52:30.452Z,4.85
2022-10-22T21:55:39.980Z,4.47
2022-10-22T21:58:42.041Z,5.10
2022-10-22T22:01:44.038Z,5.20
2022-10-22T22:04:46.113Z,5.18
2022-10-22T22:07:47.912Z,4.95
2022-10-22T22:10:49.645Z,6.03
2022-10-22T22:13:52.650Z,7.03
2022-10-22T22:16:54.415Z,4.38
2022-10-22T22:19:56.742Z,4.43
2022-10-22T22:22:58.648Z,5.60
2022-10-22T22:26:01.564Z,5.20
2022-10-22T22:29:04.407Z,6.93
2022-10-22T22:32:06.324Z,6.70
2022-10-22T22:35:08.350Z,6.18
2022-10-22T22:38:10.185Z,6.28
2022-10-22T22:41:11.878Z,6.80
2022-10-22T22:44:13.751Z,4.97
2022-10-22T22:47:18.128Z,5.35
2022-10-22T22:50:19.999Z,4.60
2022-10-22T22:53:21.776Z,5.07
2022-10-22T22:56:27.890Z,4.40
2022-10-22T22:59:29.630Z,4.28
2022-10-22T23:02:31.459Z,3.55
2022-10-22T23:05:36.575Z,3.47
2022-10-22T23:08:38.947Z,3.55
2022-10-22T23:11:43.256Z,3.67
2022-10-22T23:14:45.266Z,3.00
2022-10-22T23:17:46.967Z,3.05
2022-10-22T23:20:48.731Z,3.17
2022-10-22T23:23:53.741Z,3.30
2022-10-22T23:26:59.797Z,2.70
2022-10-22T23:30:01.500Z,3.10
2022-10-22T23:33:03.265Z,2.88
2022-10-22T23:36:08.124Z,2.75
2022-10-22T23:39:12.403Z,2.45
2022-10-22T23:42:14.127Z,2.40
2022-10-22T23:45:15.878Z,2.38
2022-10-22T23:48:18.324Z,2.25
2022-10-22T23:51:20.623Z,2.50
2022-10-22T23:54:22.376Z,2.10
2022-10-22T23:57:24.106Z,1.60
